createdAt,value
2023-04-27T00:01:39.403Z,57.88
2023-04-27T00:04:07.681Z,57.45
2023-04-27T00:06:34.630Z,57.84
2023-04-27T00:09:01.451Z,57.76
2023-04-27T00:11:28.257Z,57.43
2023-04-27T00:13:55.042Z,59.23
2023-04-27T00:16:21.882Z,58.36
2023-04-27T00:18:49.011Z,57.77
2023-04-27T00:21:15.745Z,57.42
2023-04-27T00:23:42.394Z,57.85
2023-04-27T00:26:09.087Z,57.75
2023-04-27T00:28:36.196Z,57.88
2023-04-27T00:31:04.213Z,58.15
2023-04-27T00:33:31.855Z,58.57
2023-04-27T00:36:02.074Z,58.55
2023-04-27T00:38:29.469Z,58.46
2023-04-27T00:41:07.445Z,58.78
2023-04-27T00:43:42.208Z,58.58
2023-04-27T00:46:10.083Z,58.53
2023-04-27T00:48:37.830Z,58.47
2023-04-27T00:51:06.129Z,58.49
2023-04-27T00:53:34.437Z,58.60
2023-04-27T00:56:01.249Z,59.02
2023-04-27T00:58:29.041Z,59.17
2023-04-27T01:00:56.459Z,59.77
2023-04-27T01:03:24.148Z,60.24
2023-04-27T01:05:51.154Z,59.81
2023-04-27T01:08:18.065Z,59.40
2023-04-27T01:10:45.041Z,59.16
2023-04-27T01:13:12.438Z,58.72
2023-04-27T01:15:39.210Z,58.78
2023-04-27T01:18:09.876Z,59.47
2023-04-27T01:20:36.676Z,58.74
2023-04-27T01:23:04.754Z,58.83
2023-04-27T01:25:31.847Z,58.56
2023-04-27T01:28:02.225Z,58.68
2023-04-27T01:30:30.466Z,58.51
2023-04-27T01:32:59.029Z,59.90
2023-04-27T01:35:28.093Z,60.26
2023-04-27T01:37:59.961Z,59.48
2023-04-27T01:40:26.816Z,60.99
2023-04-27T01:42:53.604Z,59.77
2023-04-27T01:45:20.340Z,59.43
2023-04-27T01:47:47.126Z,59.86
2023-04-27T01:50:13.828Z,58.67
2023-04-27T01:52:40.774Z,59.69
2023-04-27T01:55:08.087Z,59.17
2023-04-27T01:57:34.910Z,59.15
2023-04-27T02:00:01.750Z,60.16
2023-04-27T02:02:47.469Z,59.23
2023-04-27T02:05:14.396Z,58.81
2023-04-27T02:07:41.111Z,58.98
2023-04-27T02:10:08.351Z,59.23
2023-04-27T02:12:35.012Z,59.06
2023-04-27T02:15:03.732Z,59.11
2023-04-27T02:17:31.333Z,59.77
2023-04-27T02:19:58.109Z,61.35
2023-04-27T02:22:24.780Z,60.31
2023-04-27T02:24:51.920Z,60.95
2023-04-27T02:27:18.748Z,60.48
2023-04-27T02:29:46.018Z,59.75
2023-04-27T02:32:13.222Z,59.94
2023-04-27T02:34:40.184Z,58.97
2023-04-27T02:37:07.036Z,58.09
2023-04-27T02:39:33.804Z,58.16
2023-04-27T02:42:00.500Z,58.19
2023-04-27T02:44:27.467Z,58.51
2023-04-27T02:46:54.587Z,58.25
2023-04-27T02:49:22.229Z,59.08
2023-04-27T02:51:49.912Z,59.53
2023-04-27T02:54:16.665Z,59.04
2023-04-27T02:56:43.427Z,59.32
2023-04-27T02:59:12.012Z,59.27
2023-04-27T03:01:39.153Z,60.05
2023-04-27T03:04:06.156Z,59.95
2023-04-27T03:06:33.069Z,59.80
2023-04-27T03:08:59.712Z,60.06
2023-04-27T03:11:28.074Z,59.75
2023-04-27T03:13:54.776Z,59.99
2023-04-27T03:16:21.629Z,59.53
2023-04-27T03:18:48.433Z,59.50
2023-04-27T03:21:16.961Z,59.65
2023-04-27T03:23:43.724Z,59.05
2023-04-27T03:26:12.378Z,57.96
2023-04-27T03:28:41.955Z,56.99
2023-04-27T03:31:10.835Z,57.86
2023-04-27T03:33:38.237Z,57.98
2023-04-27T03:36:06.827Z,58.39
2023-04-27T03:38:34.431Z,58.57
2023-04-27T03:41:01.377Z,58.85
2023-04-27T03:43:28.163Z,59.57
2023-04-27T03:45:55.001Z,59.71
2023-04-27T03:48:22.620Z,59.89
2023-04-27T03:50:51.683Z,59.67
2023-04-27T03:53:18.583Z,59.36
2023-04-27T03:55:45.582Z,59.31
2023-04-27T03:58:12.536Z,59.55
2023-04-27T04:00:52.289Z,59.96
2023-04-27T04:03:19.241Z,59.91
2023-04-27T04:05:47.420Z,59.85
2023-04-27T04:08:14.683Z,59.90
2023-04-27T04:10:41.501Z,59.63
2023-04-27T04:13:09.892Z,60.19
2023-04-27T04:15:37.279Z,61.19
2023-04-27T04:18:04.163Z,60.67
2023-04-27T04:20:31.036Z,60.63
2023-04-27T04:22:57.792Z,59.71
2023-04-27T04:25:26.260Z,59.42
2023-04-27T04:27:53.613Z,59.30
2023-04-27T04:30:21.259Z,60.09
2023-04-27T04:32:48.185Z,59.68
2023-04-27T04:35:17.794Z,60.11
2023-04-27T04:37:44.667Z,60.59
2023-04-27T04:40:12.816Z,60.40
2023-04-27T04:42:42.214Z,60.71
2023-04-27T04:45:10.611Z,59.96
2023-04-27T04:47:40.174Z,58.80
2023-04-27T04:50:09.482Z,59.32
2023-04-27T04:52:37.516Z,58.56
2023-04-27T04:55:05.322Z,57.67
2023-04-27T04:57:32.259Z,56.51
2023-04-27T04:59:59.186Z,55.50
2023-04-27T05:02:26.121Z,55.24
2023-04-27T05:04:53.416Z,54.72
2023-04-27T05:07:24.902Z,54.88
2023-04-27T05:09:55.800Z,55.49
2023-04-27T05:12:22.595Z,54.89
2023-04-27T05:14:49.423Z,54.82
2023-04-27T05:17:16.321Z,54.91
2023-04-27T05:19:43.497Z,53.13
2023-04-27T05:22:12.975Z,53.09
2023-04-27T05:24:47.170Z,53.77
2023-04-27T05:27:19.011Z,53.53
2023-04-27T05:29:47.500Z,52.12
2023-04-27T05:32:16.694Z,51.98
2023-04-27T05:34:46.712Z,51.69
2023-04-27T05:37:19.762Z,52.37
2023-04-27T05:39:48.805Z,51.56
2023-04-27T05:42:15.805Z,51.97
2023-04-27T05:44:50.312Z,51.86
2023-04-27T05:47:22.449Z,51.53
2023-04-27T05:49:53.116Z,50.77
2023-04-27T05:52:30.396Z,51.29
2023-04-27T05:55:06.328Z,49.99
2023-04-27T06:02:00.739Z,51.80
2023-04-27T06:04:35.303Z,50.10
2023-04-27T06:07:10.330Z,48.88
2023-04-27T06:09:37.950Z,49.57
2023-04-27T06:12:09.725Z,49.50
2023-04-27T06:14:39.283Z,49.45
2023-04-27T06:17:10.935Z,49.72
2023-04-27T06:19:40.841Z,48.55
2023-04-27T06:22:07.909Z,47.30
2023-04-27T06:24:37.656Z,47.29
2023-04-27T06:27:08.434Z,47.36
2023-04-27T06:34:14.548Z,45.52
2023-04-27T06:37:09.573Z,44.83
2023-04-27T06:39:38.455Z,45.87
2023-04-27T06:42:06.800Z,46.09
2023-04-27T06:44:37.787Z,45.04
2023-04-27T06:47:05.907Z,43.48
2023-04-27T06:49:33.215Z,43.27
2023-04-27T06:52:03.094Z,45.03
2023-04-27T06:54:29.918Z,45.35
2023-04-27T06:56:59.246Z,44.13
2023-04-27T06:59:37.372Z,44.01
2023-04-27T07:02:41.793Z,43.07
2023-04-27T07:05:33.884Z,42.42
2023-04-27T07:08:08.503Z,41.61
2023-04-27T07:10:36.495Z,42.60
2023-04-27T07:13:15.661Z,41.21
2023-04-27T07:15:42.812Z,42.02
2023-04-27T07:18:12.677Z,42.00
2023-04-27T07:20:48.781Z,42.22
2023-04-27T07:23:16.550Z,42.75
2023-04-27T07:25:45.483Z,42.42
2023-04-27T07:28:13.324Z,42.12
2023-04-27T07:30:41.011Z,42.33
2023-04-27T07:33:10.327Z,41.51
2023-04-27T07:35:41.308Z,42.08
2023-04-27T07:38:11.564Z,41.03
2023-04-27T07:40:44.776Z,39.43
2023-04-27T07:43:12.049Z,41.11
2023-04-27T07:45:41.846Z,40.31
2023-04-27T07:48:24.992Z,38.82
2023-04-27T07:50:52.166Z,39.29
2023-04-27T07:53:22.096Z,39.42
2023-04-27T07:55:49.044Z,38.05
2023-04-27T07:58:19.354Z,37.62
2023-04-27T08:00:46.912Z,36.43
2023-04-27T08:03:32.919Z,36.70
2023-04-27T08:06:10.477Z,36.52
2023-04-27T08:08:40.337Z,34.19
2023-04-27T08:11:13.911Z,32.78
2023-04-27T08:13:41.002Z,35.08
2023-04-27T08:16:08.018Z,34.39
2023-04-27T08:18:35.011Z,34.52
2023-04-27T08:21:01.943Z,35.25
2023-04-27T08:23:29.917Z,31.20
2023-04-27T08:25:56.890Z,31.97
2023-04-27T08:28:24.152Z,32.38
2023-04-27T08:30:51.933Z,29.09
2023-04-27T08:33:18.725Z,31.11
2023-04-27T08:35:45.804Z,33.14
2023-04-27T08:38:12.828Z,30.19
2023-04-27T08:40:44.101Z,29.06
2023-04-27T08:43:11.541Z,28.38
2023-04-27T08:45:46.686Z,28.66
2023-04-27T08:48:13.834Z,28.52
2023-04-27T08:50:45.211Z,31.68
2023-04-27T08:53:22.389Z,29.66
2023-04-27T08:55:52.827Z,33.08
2023-04-27T08:59:09.715Z,30.66
2023-04-27T09:01:36.701Z,32.57
2023-04-27T09:04:03.999Z,32.84
2023-04-27T09:06:32.797Z,30.17
2023-04-27T09:09:00.680Z,28.90
2023-04-27T09:11:34.079Z,30.58
2023-04-27T09:14:03.627Z,29.37
2023-04-27T09:16:31.421Z,30.27
2023-04-27T09:18:59.214Z,31.27
2023-04-27T09:21:28.508Z,29.89
2023-04-27T09:23:58.859Z,31.62
2023-04-27T09:26:27.701Z,32.38
2023-04-27T09:28:59.365Z,31.22
2023-04-27T09:31:36.564Z,31.60
2023-04-27T09:35:06.562Z,31.86
2023-04-27T09:37:33.718Z,33.11
2023-04-27T09:40:02.601Z,31.30
2023-04-27T09:42:29.713Z,32.77
2023-04-27T09:44:57.266Z,31.29
2023-04-27T09:47:25.043Z,30.73
2023-04-27T09:49:52.377Z,30.69
2023-04-27T09:52:19.214Z,33.48
2023-04-27T09:54:47.023Z,30.91
2023-04-27T09:57:49.236Z,33.23
2023-04-27T10:00:43.552Z,32.75
2023-04-27T10:03:32.924Z,33.10
2023-04-27T10:06:09.008Z,32.95
2023-04-27T10:08:36.844Z,31.83
2023-04-27T10:11:33.930Z,32.23
2023-04-27T10:14:08.234Z,32.49
2023-04-27T10:16:50.975Z,31.40
2023-04-27T10:19:18.721Z,32.69
2023-04-27T10:22:12.169Z,33.29
2023-04-27T10:24:44.449Z,31.97
2023-04-27T10:27:16.328Z,32.79
2023-04-27T10:29:45.121Z,31.29
2023-04-27T10:32:14.327Z,31.38
2023-04-27T10:34:45.426Z,31.84
2023-04-27T10:37:12.511Z,32.22
2023-04-27T10:39:48.489Z,31.77
2023-04-27T10:42:28.471Z,32.44
2023-04-27T10:44:59.152Z,32.21
2023-04-27T10:47:48.252Z,32.55
2023-04-27T10:50:15.971Z,32.82
2023-04-27T10:53:33.327Z,33.05
2023-04-27T10:56:00.094Z,33.69
2023-04-27T10:58:34.671Z,33.31
2023-04-27T11:01:12.686Z,33.25
2023-04-27T11:03:39.727Z,34.44
2023-04-27T11:06:06.898Z,33.04
2023-04-27T11:08:36.879Z,34.72
2023-04-27T11:11:06.815Z,32.27
2023-04-27T11:13:34.097Z,32.33
2023-04-27T11:16:26.024Z,31.51
2023-04-27T11:18:52.848Z,32.06
2023-04-27T11:21:23.496Z,32.67
2023-04-27T11:23:50.603Z,31.31
2023-04-27T11:26:22.048Z,30.62
2023-04-27T11:29:05.488Z,31.97
2023-04-27T11:35:57.623Z,31.28
2023-04-27T11:38:24.771Z,31.19
2023-04-27T11:41:06.088Z,31.70
2023-04-27T11:43:34.027Z,31.36
2023-04-27T11:46:06.205Z,30.98
2023-04-27T11:48:37.620Z,29.62
2023-04-27T11:51:06.912Z,29.27
2023-04-27T11:53:39.436Z,30.36
2023-04-27T11:56:11.138Z,30.72
2023-04-27T11:58:40.991Z,31.19
2023-04-27T12:01:12.980Z,31.57
2023-04-27T12:03:41.614Z,33.55
2023-04-27T12:06:27.686Z,31.69
2023-04-27T12:08:57.135Z,30.54
2023-04-27T12:11:30.340Z,31.38
2023-04-27T12:13:57.507Z,30.49
2023-04-27T12:16:24.761Z,32.03
2023-04-27T12:18:51.937Z,31.48
2023-04-27T12:21:19.131Z,31.15
2023-04-27T12:23:46.140Z,31.42
2023-04-27T12:26:15.236Z,32.74
2023-04-27T12:28:42.460Z,32.91
2023-04-27T12:31:13.520Z,33.86
2023-04-27T12:33:40.707Z,31.70
2023-04-27T12:36:07.642Z,31.50
2023-04-27T12:39:04.775Z,30.50
2023-04-27T12:41:31.732Z,32.08
2023-04-27T12:43:58.570Z,31.94
2023-04-27T12:46:28.080Z,32.36
2023-04-27T12:48:57.061Z,32.16
2023-04-27T12:51:24.277Z,33.02
2023-04-27T12:53:51.322Z,32.54
2023-04-27T12:56:18.237Z,32.08
2023-04-27T12:58:45.704Z,33.63
2023-04-27T13:01:15.079Z,31.78
2023-04-27T13:03:42.998Z,32.56
2023-04-27T13:06:10.722Z,30.90
2023-04-27T13:08:37.931Z,31.50
2023-04-27T13:11:04.962Z,32.82
2023-04-27T13:13:32.007Z,31.81
2023-04-27T13:15:58.952Z,33.70
2023-04-27T13:18:26.433Z,32.55
2023-04-27T13:20:53.506Z,31.44
2023-04-27T13:23:20.293Z,31.89
2023-04-27T13:25:47.056Z,32.32
2023-04-27T13:28:13.783Z,31.83
2023-04-27T13:30:40.832Z,32.02
2023-04-27T13:33:22.048Z,32.08
2023-04-27T13:35:50.990Z,31.74
2023-04-27T13:38:17.790Z,31.50
2023-04-27T13:40:44.920Z,31.33
2023-04-27T13:43:11.889Z,32.52
2023-04-27T13:45:39.942Z,31.85
2023-04-27T13:48:07.118Z,30.90
2023-04-27T13:50:34.160Z,31.50
2023-04-27T13:53:01.952Z,31.45
2023-04-27T13:55:28.886Z,31.16
2023-04-27T13:57:55.694Z,33.05
2023-04-27T14:00:22.643Z,32.27
2023-04-27T14:02:51.492Z,31.57
2023-04-27T14:05:21.065Z,30.76
2023-04-27T14:07:49.085Z,31.81
2023-04-27T14:11:19.251Z,32.55
2023-04-27T14:13:46.369Z,31.35
2023-04-27T14:16:13.744Z,32.27
2023-04-27T14:18:40.533Z,32.12
2023-04-27T14:21:09.310Z,31.26
2023-04-27T14:23:36.620Z,31.70
2023-04-27T14:26:04.156Z,33.89
2023-04-27T14:28:31.183Z,33.14
2023-04-27T14:30:58.224Z,32.86
2023-04-27T14:33:25.496Z,31.29
2023-04-27T14:35:52.440Z,31.08
2023-04-27T14:38:19.386Z,33.17
2023-04-27T14:40:46.646Z,31.61
2023-04-27T14:43:13.645Z,30.74
2023-04-27T14:45:52.314Z,30.89
2023-04-27T14:48:29.554Z,31.40
2023-04-27T14:50:56.833Z,31.63
2023-04-27T14:53:25.882Z,31.44
2023-04-27T14:55:53.068Z,34.05
2023-04-27T14:58:24.605Z,33.98
2023-04-27T15:00:58.454Z,31.70
2023-04-27T15:03:28.360Z,31.28
2023-04-27T15:05:57.564Z,31.14
2023-04-27T15:08:26.476Z,30.26
2023-04-27T15:10:58.055Z,30.25
2023-04-27T15:13:27.009Z,29.55
2023-04-27T15:16:00.921Z,29.77
2023-04-27T15:18:31.169Z,30.94
2023-04-27T15:20:59.359Z,30.08
2023-04-27T15:23:27.777Z,30.61
2023-04-27T15:25:58.273Z,31.65
2023-04-27T15:28:25.196Z,32.83
2023-04-27T15:30:52.207Z,31.85
2023-04-27T15:33:19.479Z,32.69
2023-04-27T15:35:46.469Z,33.33
2023-04-27T15:38:15.175Z,31.12
2023-04-27T15:40:42.513Z,29.66
2023-04-27T15:43:09.625Z,33.41
2023-04-27T15:45:36.654Z,33.02
2023-04-27T15:48:41.040Z,30.73
2023-04-27T15:51:10.251Z,33.73
2023-04-27T15:53:37.732Z,32.32
2023-04-27T15:56:04.809Z,34.48
2023-04-27T15:58:31.757Z,32.29
2023-04-27T16:01:00.135Z,31.64
2023-04-27T16:03:27.280Z,31.35
2023-04-27T16:05:54.437Z,33.20
2023-04-27T16:08:22.511Z,33.22
2023-04-27T16:10:51.473Z,37.12
2023-04-27T16:13:18.417Z,34.83
2023-04-27T16:15:45.464Z,32.35
2023-04-27T16:18:12.619Z,31.29
2023-04-27T16:20:39.573Z,32.06
2023-04-27T16:23:06.938Z,33.24
2023-04-27T16:25:33.973Z,32.43
2023-04-27T16:28:01.003Z,31.71
2023-04-27T16:30:28.021Z,35.62
2023-04-27T16:32:57.349Z,32.76
2023-04-27T16:39:26.602Z,33.48
2023-04-27T16:41:56.156Z,31.74
2023-04-27T16:44:31.948Z,31.81
2023-04-27T16:46:58.950Z,32.15
2023-04-27T16:49:28.186Z,32.56
2023-04-27T16:51:56.374Z,32.78
2023-04-27T16:54:25.611Z,32.68
2023-04-27T16:56:54.600Z,33.24
2023-04-27T16:59:22.594Z,32.67
2023-04-27T17:01:49.588Z,32.64
2023-04-27T17:04:19.920Z,32.71
2023-04-27T17:06:49.538Z,33.43
2023-04-27T17:09:16.888Z,34.21
2023-04-27T17:11:43.917Z,32.89
2023-04-27T17:14:10.901Z,33.13
2023-04-27T17:16:39.703Z,32.81
2023-04-27T17:19:14.447Z,33.81
2023-04-27T17:21:44.348Z,34.83
2023-04-27T17:24:14.215Z,37.37
2023-04-27T17:26:46.555Z,40.79
2023-04-27T17:29:33.147Z,41.80
2023-04-27T17:32:15.220Z,42.90
2023-04-27T17:34:43.059Z,44.08
2023-04-27T17:37:12.741Z,43.85
2023-04-27T17:39:40.065Z,41.79
2023-04-27T17:42:12.392Z,44.70
2023-04-27T17:44:41.581Z,45.64
2023-04-27T17:47:09.183Z,47.66
2023-04-27T17:49:41.036Z,46.11
2023-04-27T17:52:29.537Z,49.58
2023-04-27T17:54:57.930Z,50.14
2023-04-27T17:57:27.841Z,53.08
2023-04-27T18:00:00.953Z,50.00
2023-04-27T18:02:31.561Z,52.11
2023-04-27T18:04:58.817Z,54.31
2023-04-27T18:07:47.536Z,49.08
2023-04-27T18:10:16.970Z,54.01
2023-04-27T18:12:52.858Z,50.17
2023-04-27T18:15:20.452Z,50.86
2023-04-27T18:17:47.535Z,51.65
2023-04-27T18:20:16.618Z,51.96
2023-04-27T18:22:43.719Z,52.81
2023-04-27T18:25:10.989Z,52.61
2023-04-27T18:27:38.302Z,54.22
2023-04-27T18:30:13.021Z,56.45
2023-04-27T18:32:39.962Z,56.52
2023-04-27T18:35:12.013Z,54.38
2023-04-27T18:37:39.760Z,53.74
2023-04-27T18:40:09.361Z,54.79
2023-04-27T18:42:36.527Z,56.17
2023-04-27T18:45:03.781Z,54.34
2023-04-27T18:47:49.683Z,55.89
2023-04-27T18:50:24.113Z,53.45
2023-04-27T18:52:52.625Z,55.43
2023-04-27T18:55:19.677Z,55.73
2023-04-27T18:57:48.121Z,57.11
2023-04-27T19:00:23.033Z,56.35
2023-04-27T19:02:54.945Z,54.71
2023-04-27T19:05:26.984Z,55.66
2023-04-27T19:07:54.865Z,56.86
2023-04-27T19:10:22.006Z,55.47
2023-04-27T19:13:00.910Z,57.01
2023-04-27T19:15:34.609Z,58.48
2023-04-27T19:18:10.871Z,57.46
2023-04-27T19:20:39.465Z,56.61
2023-04-27T19:23:09.551Z,57.20
2023-04-27T19:25:43.027Z,56.74
2023-04-27T19:28:20.853Z,58.90
2023-04-27T19:30:50.863Z,59.26
2023-04-27T19:33:20.445Z,57.71
2023-04-27T19:35:53.274Z,56.98
2023-04-27T19:38:30.638Z,56.85
2023-04-27T19:41:02.014Z,58.14
2023-04-27T19:43:38.961Z,57.98
2023-04-27T19:46:11.133Z,58.14
2023-04-27T19:48:39.160Z,56.89
2023-04-27T19:51:10.173Z,58.35
2023-04-27T19:53:38.182Z,58.87
2023-04-27T19:56:05.142Z,58.75
2023-04-27T19:58:34.622Z,59.25
2023-04-27T20:01:02.093Z,59.79
2023-04-27T20:03:31.351Z,58.17
2023-04-27T20:06:10.605Z,57.61
2023-04-27T20:08:43.281Z,58.24
2023-04-27T20:11:10.267Z,57.48
2023-04-27T20:13:39.719Z,56.98
2023-04-27T20:16:09.242Z,57.60
2023-04-27T20:18:36.461Z,58.21
2023-04-27T20:21:05.881Z,57.75
2023-04-27T20:23:35.012Z,56.79
2023-04-27T20:26:01.980Z,57.61
2023-04-27T20:28:30.390Z,56.73
2023-04-27T20:30:57.743Z,56.51
2023-04-27T20:33:24.632Z,56.80
2023-04-27T20:35:55.560Z,56.97
2023-04-27T20:38:23.893Z,56.54
2023-04-27T20:40:53.539Z,57.04
2023-04-27T20:43:21.317Z,58.30
2023-04-27T20:45:48.305Z,57.35
2023-04-27T20:48:15.224Z,57.56
2023-04-27T20:50:42.820Z,57.06
2023-04-27T20:53:09.801Z,56.87
2023-04-27T20:55:37.093Z,58.63
2023-04-27T20:58:03.928Z,58.22
2023-04-27T21:00:30.955Z,58.35
2023-04-27T21:02:57.883Z,59.76
2023-04-27T21:05:25.961Z,57.33
2023-04-27T21:07:54.078Z,57.29
2023-04-27T21:10:21.296Z,57.86
2023-04-27T21:12:48.250Z,57.66
2023-04-27T21:15:15.104Z,58.00
2023-04-27T21:17:41.963Z,58.07
2023-04-27T21:20:09.949Z,57.86
2023-04-27T21:22:37.525Z,58.30
2023-04-27T21:25:04.775Z,58.01
2023-04-27T21:27:32.751Z,58.34
2023-04-27T21:30:02.447Z,58.14
2023-04-27T21:32:29.217Z,58.20
2023-04-27T21:34:56.611Z,58.34
2023-04-27T21:37:24.445Z,59.55
2023-04-27T21:39:51.199Z,58.87
2023-04-27T21:42:18.263Z,58.75
2023-04-27T21:44:45.093Z,60.92
2023-04-27T21:47:12.435Z,59.86
2023-04-27T21:49:39.606Z,59.32
2023-04-27T21:52:06.381Z,58.42
2023-04-27T21:54:33.408Z,58.32
2023-04-27T21:57:01.198Z,57.94
2023-04-27T21:59:28.144Z,57.99
2023-04-27T22:01:59.432Z,57.88
2023-04-27T22:04:26.579Z,58.06
2023-04-27T22:06:53.517Z,58.00
2023-04-27T22:09:22.991Z,58.43
2023-04-27T22:11:52.561Z,58.80
2023-04-27T22:14:19.496Z,59.03
2023-04-27T22:16:46.682Z,58.99
2023-04-27T22:19:13.561Z,58.81
2023-04-27T22:21:40.391Z,59.14
2023-04-27T22:24:07.313Z,59.16
2023-04-27T22:26:34.060Z,59.25
2023-04-27T22:29:00.946Z,59.16
2023-04-27T22:31:27.880Z,58.75
2023-04-27T22:33:54.810Z,58.90
2023-04-27T22:36:23.090Z,58.59
2023-04-27T22:38:52.391Z,59.83
2023-04-27T22:41:47.476Z,59.26
2023-04-27T22:44:14.571Z,58.88
2023-04-27T22:46:43.802Z,58.96
2023-04-27T22:49:10.768Z,59.31
2023-04-27T22:51:38.932Z,58.92
2023-04-27T22:54:06.210Z,59.21
2023-04-27T22:56:33.290Z,59.41
2023-04-27T22:59:00.241Z,59.04
2023-04-27T23:01:27.101Z,58.96
2023-04-27T23:03:54.457Z,59.13
2023-04-27T23:06:22.217Z,59.19
2023-04-27T23:08:49.031Z,58.74
2023-04-27T23:11:18.926Z,58.87
2023-04-27T23:13:48.266Z,59.05
2023-04-27T23:16:15.773Z,58.56
2023-04-27T23:18:42.708Z,58.49
2023-04-27T23:21:11.395Z,58.11
2023-04-27T23:23:38.368Z,59.30
2023-04-27T23:26:13.108Z,58.60
2023-04-27T23:28:40.209Z,58.66
2023-04-27T23:31:07.525Z,58.75
2023-04-27T23:33:34.847Z,59.02
2023-04-27T23:36:02.211Z,59.91
2023-04-27T23:38:29.151Z,60.19
2023-04-27T23:40:55.999Z,59.27
2023-04-27T23:43:23.044Z,58.52
2023-04-27T23:45:53.866Z,59.47
2023-04-27T23:48:20.757Z,59.87
2023-04-27T23:50:47.568Z,58.94
2023-04-27T23:53:14.503Z,58.99
2023-04-27T23:55:41.443Z,58.71
2023-04-27T23:58:08.325Z,58.99
